Time;durP1;ratioP1;P1;durP2;ratioP2;P2;SDS_P1;SDS_P2;PMS_P1;PMS_P2;Temp;Humidity;BMP_temperature;BMP_pressure;BME280_temperature;BME280_humidity;BME280_pressure;Samples;Min_cycle;Max_cycle;Signal;HPM_P1;HPM_P2
2023/09/01 00:01:33;;;;;;;3.75;1.92;;;;;;;;;;5070794;28;20086;-75
2023/09/01 00:03:59;;;;;;;2.60;1.80;;;;;;;;;;5072513;28;20470;-75
2023/09/01 00:06:24;;;;;;;4.90;2.00;;;;;;;;;;5072567;28;20039;-74
2023/09/01 00:08:50;;;;;;;3.60;2.00;;;;;;;;;;5071365;28;20107;-75
2023/09/01 00:11:15;;;;;;;2.92;2.08;;;;;;;;;;5062375;28;20032;-74
2023/09/01 00:13:41;;;;;;;2.72;1.90;;;;;;;;;;5051836;28;20029;-75
2023/09/01 00:16:06;;;;;;;3.03;2.13;;;;;;;;;;5046467;28;20013;-75
2023/09/01 00:18:32;;;;;;;4.45;2.00;;;;;;;;;;5032824;28;20052;-74
2023/09/01 00:20:59;;;;;;;3.65;1.95;;;;;;;;;;5031179;28;20041;-75
2023/09/01 00:23:24;;;;;;;3.38;1.73;;;;;;;;;;5034535;28;20033;-74
2023/09/01 00:25:55;;;;;;;3.72;2.30;;;;;;;;;;5035411;28;20029;-75
2023/09/01 00:28:20;;;;;;;3.63;1.98;;;;;;;;;;5047743;28;20060;-74
2023/09/01 00:30:57;;;;;;;3.63;1.95;;;;;;;;;;5054825;28;20069;-75
2023/09/01 00:33:31;;;;;;;3.15;2.00;;;;;;;;;;5055022;28;20076;-74
2023/09/01 00:35:58;;;;;;;3.35;2.03;;;;;;;;;;5054853;28;20047;-74
2023/09/01 00:38:26;;;;;;;4.32;1.88;;;;;;;;;;5054096;28;20033;-75
2023/09/01 00:40:52;;;;;;;3.65;1.85;;;;;;;;;;5048055;28;20024;-75
2023/09/01 00:43:18;;;;;;;3.08;2.50;;;;;;;;;;5058029;28;20390;-74
2023/09/01 00:45:43;;;;;;;3.80;2.00;;;;;;;;;;5074334;28;20044;-75
2023/09/01 00:48:11;;;;;;;5.22;2.70;;;;;;;;;;5076142;28;20021;-74
2023/09/01 00:50:36;;;;;;;3.45;1.95;;;;;;;;;;5075014;28;20044;-75
2023/09/01 00:53:02;;;;;;;6.22;2.13;;;;;;;;;;5075042;28;20101;-74
2023/09/01 00:55:28;;;;;;;3.58;2.20;;;;;;;;;;5075327;28;20020;-75
2023/09/01 00:57:54;;;;;;;5.90;2.58;;;;;;;;;;5075360;28;20032;-74
2023/09/01 01:00:19;;;;;;;4.18;2.17;;;;;;;;;;5074090;28;20409;-74
2023/09/01 01:02:46;;;;;;;4.82;2.38;;;;;;;;;;5074365;28;20470;-74
2023/09/01 01:05:15;;;;;;;3.08;2.03;;;;;;;;;;5074361;28;20078;-74
2023/09/01 01:08:12;;;;;;;4.03;2.38;;;;;;;;;;5050337;28;20021;-74
2023/09/01 01:10:57;;;;;;;4.10;1.95;;;;;;;;;;5019767;28;20156;-74
2023/09/01 01:13:28;;;;;;;4.03;2.30;;;;;;;;;;5051661;28;20025;-75
2023/09/01 01:15:55;;;;;;;3.55;2.10;;;;;;;;;;5050538;28;20144;-75
2023/09/01 01:18:21;;;;;;;3.78;2.10;;;;;;;;;;5035018;28;20143;-75
2023/09/01 01:20:52;;;;;;;4.88;2.15;;;;;;;;;;5051057;28;20030;-75
2023/09/01 01:23:17;;;;;;;3.85;2.03;;;;;;;;;;5035345;28;20499;-75
2023/09/01 01:25:52;;;;;;;3.88;1.95;;;;;;;;;;5035249;28;20025;-74
2023/09/01 01:28:18;;;;;;;3.65;2.10;;;;;;;;;;5050558;28;20475;-74
2023/09/01 01:30:46;;;;;;;3.65;2.15;;;;;;;;;;5033801;28;20508;-74
2023/09/01 01:33:42;;;;;;;4.93;2.03;;;;;;;;;;5049647;28;20021;-74
2023/09/01 01:36:21;;;;;;;3.95;2.33;;;;;;;;;;5049860;28;20036;-75
2023/09/01 01:38:52;;;;;;;5.13;2.22;;;;;;;;;;5050059;28;20021;-74
2023/09/01 01:41:20;;;;;;;4.05;3.05;;;;;;;;;;5033717;28;20426;-74
2023/09/01 01:43:49;;;;;;;3.85;2.40;;;;;;;;;;5033574;28;20107;-75
2023/09/01 01:46:15;;;;;;;2.90;2.15;;;;;;;;;;5050120;28;20028;-74
2023/09/01 01:48:40;;;;;;;3.40;2.20;;;;;;;;;;5050238;28;20108;-74
2023/09/01 01:51:05;;;;;;;4.22;2.10;;;;;;;;;;5049812;28;20022;-74
2023/09/01 01:53:35;;;;;;;3.55;2.33;;;;;;;;;;5050134;28;20025;-74
2023/09/01 01:56:01;;;;;;;3.50;2.03;;;;;;;;;;5049944;28;20029;-74
2023/09/01 01:58:27;;;;;;;3.58;2.50;;;;;;;;;;5049972;28;20044;-74
2023/09/01 02:00:52;;;;;;;5.75;2.83;;;;;;;;;;5033498;28;20061;-74
2023/09/01 02:03:17;;;;;;;4.78;2.42;;;;;;;;;;5032963;28;20025;-74
2023/09/01 02:05:43;;;;;;;4.75;2.65;;;;;;;;;;5049777;28;20530;-74
2023/09/01 02:08:08;;;;;;;4.68;2.30;;;;;;;;;;5049846;28;20025;-74
2023/09/01 02:10:33;;;;;;;3.40;2.35;;;;;;;;;;5034854;28;20100;-74
2023/09/01 02:13:00;;;;;;;7.25;2.97;;;;;;;;;;5033779;28;20025;-75
2023/09/01 02:15:27;;;;;;;4.72;2.75;;;;;;;;;;5049692;28;20017;-74
2023/09/01 02:17:52;;;;;;;5.78;2.30;;;;;;;;;;5034321;28;20057;-74
2023/09/01 02:20:18;;;;;;;4.70;2.40;;;;;;;;;;5034435;28;20053;-74
2023/09/01 02:22:44;;;;;;;6.57;3.45;;;;;;;;;;5033891;28;20052;-75
2023/09/01 02:25:10;;;;;;;4.85;2.65;;;;;;;;;;5049338;28;20031;-75
2023/09/01 02:27:37;;;;;;;5.35;2.92;;;;;;;;;;5049478;28;20021;-74
2023/09/01 02:30:03;;;;;;;4.20;2.70;;;;;;;;;;5049384;28;20526;-75
2023/09/01 02:32:28;;;;;;;5.07;2.70;;;;;;;;;;5032737;28;20029;-74
2023/09/01 02:34:54;;;;;;;5.78;3.92;;;;;;;;;;5049422;28;20360;-74
2023/09/01 02:37:19;;;;;;;5.18;2.60;;;;;;;;;;5033540;28;20040;-74
2023/09/01 02:39:44;;;;;;;4.50;2.60;;;;;;;;;;5032868;28;20105;-74
2023/09/01 02:42:09;;;;;;;7.43;3.65;;;;;;;;;;5033967;28;20048;-74
2023/09/01 02:44:35;;;;;;;6.65;3.47;;;;;;;;;;5033374;28;20383;-75
2023/09/01 02:47:00;;;;;;;5.32;2.90;;;;;;;;;;5041968;28;20036;-75
2023/09/01 02:49:25;;;;;;;5.78;2.97;;;;;;;;;;5053287;28;20075;-74
2023/09/01 02:51:51;;;;;;;5.68;3.15;;;;;;;;;;5032752;28;20033;-75
2023/09/01 02:54:16;;;;;;;8.00;3.53;;;;;;;;;;5037288;28;20021;-75
2023/09/01 02:56:42;;;;;;;4.40;2.70;;;;;;;;;;5053486;28;20021;-74
2023/09/01 02:59:07;;;;;;;3.35;2.38;;;;;;;;;;5051994;28;20029;-75
2023/09/01 03:01:32;;;;;;;3.63;2.53;;;;;;;;;;5052849;28;20021;-74
2023/09/01 03:03:58;;;;;;;6.90;2.83;;;;;;;;;;5053675;28;20083;-74
2023/09/01 03:06:23;;;;;;;5.65;2.85;;;;;;;;;;5062177;28;20020;-75
2023/09/01 03:08:48;;;;;;;5.00;3.08;;;;;;;;;;5072376;28;20163;-74
2023/09/01 03:11:13;;;;;;;5.25;3.25;;;;;;;;;;5073336;28;20020;-74
2023/09/01 03:13:40;;;;;;;4.35;2.58;;;;;;;;;;5057480;28;20028;-74
2023/09/01 03:16:06;;;;;;;5.72;2.95;;;;;;;;;;5053273;28;20012;-75
2023/09/01 03:18:32;;;;;;;4.40;2.80;;;;;;;;;;5053506;28;20024;-74
2023/09/01 03:21:08;;;;;;;5.03;2.50;;;;;;;;;;5053396;28;20403;-74
2023/09/01 03:23:33;;;;;;;4.60;2.40;;;;;;;;;;5036797;28;20447;-74
2023/09/01 03:25:58;;;;;;;4.90;2.22;;;;;;;;;;5031385;28;20117;-75
2023/09/01 03:28:24;;;;;;;4.85;2.70;;;;;;;;;;5064014;28;20020;-75
2023/09/01 03:30:49;;;;;;;5.25;2.70;;;;;;;;;;5073166;28;20035;-75
2023/09/01 03:33:14;;;;;;;9.77;3.78;;;;;;;;;;5072857;28;20020;-75
2023/09/01 03:35:40;;;;;;;5.13;2.97;;;;;;;;;;5071349;28;20024;-74
2023/09/01 03:38:05;;;;;;;6.72;3.15;;;;;;;;;;5058780;28;20044;-74
2023/09/01 03:40:31;;;;;;;5.53;2.88;;;;;;;;;;5066072;28;20025;-75
2023/09/01 03:42:56;;;;;;;5.55;3.40;;;;;;;;;;5071527;28;20024;-74
2023/09/01 03:45:21;;;;;;;6.05;3.25;;;;;;;;;;5055089;28;20506;-74
2023/09/01 03:47:47;;;;;;;9.13;3.45;;;;;;;;;;5052382;28;20025;-74
2023/09/01 03:50:12;;;;;;;6.05;2.85;;;;;;;;;;5051964;28;20056;-74
2023/09/01 03:52:37;;;;;;;4.68;2.72;;;;;;;;;;5051992;28;20029;-74
2023/09/01 03:55:04;;;;;;;6.40;3.33;;;;;;;;;;5037449;28;20104;-75
2023/09/01 03:57:29;;;;;;;4.75;2.88;;;;;;;;;;5032838;28;20060;-75
2023/09/01 03:59:54;;;;;;;5.53;3.58;;;;;;;;;;5036885;28;20029;-74
2023/09/01 04:02:19;;;;;;;5.72;2.95;;;;;;;;;;5036848;28;20025;-74
2023/09/01 04:04:45;;;;;;;9.57;3.85;;;;;;;;;;5036757;28;20025;-74
2023/09/01 04:07:10;;;;;;;6.00;3.20;;;;;;;;;;5036811;28;20049;-74
2023/09/01 04:09:35;;;;;;;6.20;3.63;;;;;;;;;;5034883;28;20029;-75
2023/09/01 04:12:01;;;;;;;5.18;3.00;;;;;;;;;;5036762;28;20491;-74
2023/09/01 04:14:26;;;;;;;6.68;3.03;;;;;;;;;;5035926;28;20067;-74
2023/09/01 04:16:51;;;;;;;5.00;3.22;;;;;;;;;;5053836;28;20367;-74
2023/09/01 04:19:17;;;;;;;4.25;2.45;;;;;;;;;;5076388;28;20028;-74
2023/09/01 04:21:42;;;;;;;4.18;2.42;;;;;;;;;;5076077;28;20024;-75
2023/09/01 04:24:08;;;;;;;4.38;2.83;;;;;;;;;;5075855;28;20064;-74
2023/09/01 04:26:36;;;;;;;6.57;2.83;;;;;;;;;;5077018;28;20032;-74
2023/09/01 04:29:03;;;;;;;4.25;2.60;;;;;;;;;;5076771;28;20024;-74
2023/09/01 04:31:29;;;;;;;4.70;2.90;;;;;;;;;;5078214;28;20036;-74
2023/09/01 04:33:55;;;;;;;5.82;3.22;;;;;;;;;;5076198;28;20105;-75
2023/09/01 04:36:21;;;;;;;5.15;3.15;;;;;;;;;;5058248;28;20051;-74
2023/09/01 04:38:46;;;;;;;5.40;3.58;;;;;;;;;;5036265;28;20443;-74
2023/09/01 04:41:12;;;;;;;4.95;2.80;;;;;;;;;;5036331;28;20021;-74
2023/09/01 04:43:38;;;;;;;5.18;3.03;;;;;;;;;;5034995;28;20541;-74
2023/09/01 04:46:03;;;;;;;3.97;2.30;;;;;;;;;;5057059;28;20402;-74
2023/09/01 04:48:30;;;;;;;4.43;2.60;;;;;;;;;;5074705;28;20029;-75
2023/09/01 04:50:55;;;;;;;5.10;3.90;;;;;;;;;;5074110;28;20439;-74
2023/09/01 04:53:21;;;;;;;5.97;2.70;;;;;;;;;;5074561;28;20107;-74
2023/09/01 04:55:47;;;;;;;4.75;3.03;;;;;;;;;;5075579;28;20437;-74
2023/09/01 04:58:12;;;;;;;4.43;2.65;;;;;;;;;;5075758;28;20044;-75
2023/09/01 05:00:38;;;;;;;5.35;2.85;;;;;;;;;;5074259;28;20052;-74
2023/09/01 05:03:03;;;;;;;4.85;3.58;;;;;;;;;;5075723;28;20393;-74
2023/09/01 05:05:29;;;;;;;5.38;2.92;;;;;;;;;;5073558;28;20504;-74
2023/09/01 05:07:54;;;;;;;4.90;2.92;;;;;;;;;;5075646;28;20038;-74
2023/09/01 05:10:19;;;;;;;8.82;3.38;;;;;;;;;;5075485;28;20016;-74
2023/09/01 05:12:45;;;;;;;9.50;3.97;;;;;;;;;;5074874;28;20478;-74
2023/09/01 05:15:10;;;;;;;8.07;4.00;;;;;;;;;;5073532;28;20095;-75
2023/09/01 05:17:35;;;;;;;6.95;3.90;;;;;;;;;;5074210;28;20029;-74
2023/09/01 05:20:01;;;;;;;6.10;3.28;;;;;;;;;;5074093;28;20082;-75
2023/09/01 05:22:26;;;;;;;6.35;3.30;;;;;;;;;;5075533;28;20024;-74
2023/09/01 05:24:53;;;;;;;4.13;2.85;;;;;;;;;;5056491;28;20505;-74
2023/09/01 05:27:19;;;;;;;7.22;3.20;;;;;;;;;;5073792;28;20020;-75
2023/09/01 05:29:45;;;;;;;5.75;3.40;;;;;;;;;;5075026;28;20025;-74
2023/09/01 05:32:11;;;;;;;5.60;3.42;;;;;;;;;;5073873;28;20097;-74
2023/09/01 05:34:36;;;;;;;5.72;3.20;;;;;;;;;;5056490;28;20470;-74
2023/09/01 05:37:02;;;;;;;6.55;4.30;;;;;;;;;;5074971;28;20031;-75
2023/09/01 05:39:27;;;;;;;7.07;3.95;;;;;;;;;;5073643;28;20486;-74
2023/09/01 05:41:52;;;;;;;10.52;4.65;;;;;;;;;;5073676;28;20074;-74
2023/09/01 05:44:18;;;;;;;8.60;4.40;;;;;;;;;;5074218;28;20040;-74
2023/09/01 05:46:44;;;;;;;8.55;4.60;;;;;;;;;;5082756;22;20099;-72
2023/09/01 05:49:09;;;;;;;5.82;3.53;;;;;;;;;;5054255;28;20029;-72
2023/09/01 05:51:34;;;;;;;8.90;4.80;;;;;;;;;;5054341;28;20052;-72
2023/09/01 05:53:59;;;;;;;6.70;3.55;;;;;;;;;;5054035;28;20020;-72
2023/09/01 05:56:25;;;;;;;6.93;4.78;;;;;;;;;;5052846;28;20437;-72
2023/09/01 05:58:50;;;;;;;9.27;4.90;;;;;;;;;;5053746;28;20083;-72
2023/09/01 06:01:15;;;;;;;8.10;4.43;;;;;;;;;;5053388;28;20025;-72
2023/09/01 06:03:40;;;;;;;7.20;4.30;;;;;;;;;;5053447;28;20071;-72
2023/09/01 06:06:07;;;;;;;9.43;4.40;;;;;;;;;;5052404;28;20027;-72
2023/09/01 06:08:32;;;;;;;6.90;3.80;;;;;;;;;;5051416;28;20025;-72
2023/09/01 06:11:05;;;;;;;7.03;4.15;;;;;;;;;;5053391;28;20025;-72
2023/09/01 06:13:30;;;;;;;6.55;3.33;;;;;;;;;;5053355;28;20548;-72
2023/09/01 06:15:55;;;;;;;5.97;3.70;;;;;;;;;;5052372;28;20033;-73
2023/09/01 06:18:20;;;;;;;9.65;4.90;;;;;;;;;;5053870;28;20044;-72
2023/09/01 06:20:46;;;;;;;7.78;4.20;;;;;;;;;;5051144;28;20048;-72
2023/09/01 06:23:11;;;;;;;7.60;4.25;;;;;;;;;;5052016;28;20033;-72
2023/09/01 06:25:36;;;;;;;6.75;4.40;;;;;;;;;;5052425;28;20028;-72
2023/09/01 06:28:02;;;;;;;8.52;4.03;;;;;;;;;;5053105;28;20210;-72
2023/09/01 06:30:27;;;;;;;9.80;5.45;;;;;;;;;;5051690;28;20070;-72
2023/09/01 06:32:53;;;;;;;10.07;6.03;;;;;;;;;;5052908;28;20402;-72
2023/09/01 06:35:18;;;;;;;11.27;5.75;;;;;;;;;;5053121;28;20017;-72
2023/09/01 06:37:43;;;;;;;12.32;5.88;;;;;;;;;;5051337;28;20037;-72
2023/09/01 06:40:09;;;;;;;12.27;4.97;;;;;;;;;;5052525;28;20025;-71
2023/09/01 06:42:34;;;;;;;8.15;4.45;;;;;;;;;;5052750;28;20078;-71
2023/09/01 06:44:59;;;;;;;8.57;4.80;;;;;;;;;;5052886;28;20025;-71
2023/09/01 06:47:25;;;;;;;8.73;4.57;;;;;;;;;;5052666;28;20029;-71
2023/09/01 06:49:50;;;;;;;8.48;4.75;;;;;;;;;;5052657;28;20025;-71
2023/09/01 06:52:16;;;;;;;5.95;3.47;;;;;;;;;;5052949;28;20446;-71
2023/09/01 06:54:41;;;;;;;8.10;3.58;;;;;;;;;;5051844;28;20033;-71
2023/09/01 06:57:07;;;;;;;8.35;4.30;;;;;;;;;;5052530;28;20025;-71
2023/09/01 06:59:32;;;;;;;6.22;3.65;;;;;;;;;;5052713;28;20070;-71
2023/09/01 07:01:57;;;;;;;5.80;3.75;;;;;;;;;;5052388;28;20522;-71
2023/09/01 07:04:25;;;;;;;7.47;4.35;;;;;;;;;;5052038;28;20108;-71
2023/09/01 07:06:50;;;;;;;6.53;4.40;;;;;;;;;;5052450;28;20025;-71
2023/09/01 07:09:15;;;;;;;10.48;3.83;;;;;;;;;;5052500;28;20021;-71
2023/09/01 07:11:40;;;;;;;7.28;3.85;;;;;;;;;;5052624;28;20394;-71
2023/09/01 07:14:06;;;;;;;4.88;3.22;;;;;;;;;;5052036;28;20029;-71
2023/09/01 07:16:31;;;;;;;7.10;3.53;;;;;;;;;;5052116;28;20027;-71
2023/09/01 07:18:56;;;;;;;8.27;3.08;;;;;;;;;;5052453;28;20029;-71
2023/09/01 07:21:22;;;;;;;4.13;2.67;;;;;;;;;;5052037;28;20052;-71
2023/09/01 07:23:48;;;;;;;6.22;3.05;;;;;;;;;;5052422;28;20467;-71
2023/09/01 07:26:14;;;;;;;4.43;2.95;;;;;;;;;;5052015;28;20040;-71
2023/09/01 07:28:39;;;;;;;4.68;3.13;;;;;;;;;;5051955;28;20028;-71
2023/09/01 07:31:10;;;;;;;4.10;2.80;;;;;;;;;;5052301;28;20138;-72
2023/09/01 07:33:36;;;;;;;4.72;3.10;;;;;;;;;;5054434;28;20036;-71
2023/09/01 07:36:01;;;;;;;4.85;3.08;;;;;;;;;;5056411;28;20471;-71
2023/09/01 07:38:26;;;;;;;4.90;2.90;;;;;;;;;;5055644;28;20029;-71
2023/09/01 07:40:52;;;;;;;4.93;2.72;;;;;;;;;;5056344;28;20047;-71
2023/09/01 07:43:17;;;;;;;5.45;2.75;;;;;;;;;;5056384;28;20033;-71
2023/09/01 07:45:43;;;;;;;10.93;2.90;;;;;;;;;;5056210;28;20462;-71
2023/09/01 07:48:08;;;;;;;4.70;2.42;;;;;;;;;;5048785;28;20040;-71
2023/09/01 07:50:34;;;;;;;6.60;2.80;;;;;;;;;;5048120;28;20025;-71
2023/09/01 07:52:59;;;;;;;4.63;2.50;;;;;;;;;;5055952;28;20112;-73
2023/09/01 07:55:25;;;;;;;4.82;3.03;;;;;;;;;;5056527;28;20077;-74
2023/09/01 07:57:50;;;;;;;6.35;2.42;;;;;;;;;;5054631;28;20032;-73
2023/09/01 08:00:17;;;;;;;6.30;3.05;;;;;;;;;;5055849;28;20029;-73
2023/09/01 08:02:43;;;;;;;5.15;2.75;;;;;;;;;;5056030;28;20489;-73
2023/09/01 08:05:08;;;;;;;3.90;2.60;;;;;;;;;;5053697;28;20108;-73
2023/09/01 08:07:34;;;;;;;5.90;3.17;;;;;;;;;;5054706;28;20032;-73
2023/09/01 08:09:59;;;;;;;7.80;2.92;;;;;;;;;;5055491;28;20024;-73
2023/09/01 08:12:27;;;;;;;4.65;3.83;;;;;;;;;;5054350;28;20151;-73
2023/09/01 08:14:52;;;;;;;3.63;2.35;;;;;;;;;;5054472;28;20147;-73
2023/09/01 08:17:17;;;;;;;4.60;2.60;;;;;;;;;;5054467;28;20104;-73
2023/09/01 08:19:47;;;;;;;4.60;2.53;;;;;;;;;;5055133;28;20096;-73
2023/09/01 08:22:12;;;;;;;4.97;3.10;;;;;;;;;;5037384;28;20021;-74
2023/09/01 08:24:37;;;;;;;4.95;2.83;;;;;;;;;;5055625;28;20036;-74
2023/09/01 08:27:03;;;;;;;3.67;2.40;;;;;;;;;;5055329;28;20470;-74
2023/09/01 08:29:30;;;;;;;3.90;2.55;;;;;;;;;;5054109;28;20028;-73
2023/09/01 08:31:55;;;;;;;4.55;3.05;;;;;;;;;;5055511;28;20028;-73
2023/09/01 08:34:21;;;;;;;4.18;2.40;;;;;;;;;;5055618;28;20028;-73
2023/09/01 08:36:46;;;;;;;4.18;2.50;;;;;;;;;;5054000;28;20494;-73
2023/09/01 08:39:11;;;;;;;3.38;2.88;;;;;;;;;;5053816;28;20406;-74
2023/09/01 08:41:39;;;;;;;3.38;2.75;;;;;;;;;;5055276;28;20368;-74
2023/09/01 08:44:08;;;;;;;4.35;2.42;;;;;;;;;;5054062;28;20016;-74
2023/09/01 08:46:34;;;;;;;3.08;2.38;;;;;;;;;;5037820;28;20033;-73
2023/09/01 08:49:00;;;;;;;3.45;2.60;;;;;;;;;;5054019;28;20490;-73
2023/09/01 08:51:25;;;;;;;6.88;2.40;;;;;;;;;;5055099;28;20035;-74
2023/09/01 08:53:51;;;;;;;3.95;2.30;;;;;;;;;;5053573;28;20055;-73
2023/09/01 08:56:17;;;;;;;4.53;2.15;;;;;;;;;;5055016;28;20025;-73
2023/09/01 08:58:44;;;;;;;3.97;2.45;;;;;;;;;;5054162;28;20025;-73
2023/09/01 09:01:10;;;;;;;3.10;2.58;;;;;;;;;;5037513;28;20453;-73
2023/09/01 09:03:35;;;;;;;2.80;2.08;;;;;;;;;;5053835;28;20021;-73
2023/09/01 09:06:02;;;;;;;5.43;2.83;;;;;;;;;;5054280;28;20025;-73
2023/09/01 09:08:28;;;;;;;3.22;2.20;;;;;;;;;;5055141;28;20021;-73
2023/09/01 09:10:53;;;;;;;4.78;2.40;;;;;;;;;;5054724;28;20027;-73
2023/09/01 09:13:31;;;;;;;3.22;2.00;;;;;;;;;;5053786;28;20021;-74
2023/09/01 09:16:05;;;;;;;3.10;2.30;;;;;;;;;;5054491;28;20025;-74
2023/09/01 09:18:30;;;;;;;3.50;1.73;;;;;;;;;;5054258;28;20071;-74
2023/09/01 09:20:55;;;;;;;4.75;2.42;;;;;;;;;;5052760;28;20033;-74
2023/09/01 09:23:21;;;;;;;4.60;2.35;;;;;;;;;;5054903;28;20032;-74
2023/09/01 09:25:49;;;;;;;3.92;2.17;;;;;;;;;;5053458;28;20069;-74
2023/09/01 09:28:16;;;;;;;3.45;1.92;;;;;;;;;;5052897;28;20052;-74
2023/09/01 09:30:51;;;;;;;2.83;1.85;;;;;;;;;;5053232;28;20079;-74
2023/09/01 09:33:26;;;;;;;3.45;1.92;;;;;;;;;;5053137;28;20108;-74
2023/09/01 09:35:51;;;;;;;3.20;2.15;;;;;;;;;;5053221;28;20103;-74
2023/09/01 09:38:16;;;;;;;2.78;1.98;;;;;;;;;;5053404;28;20479;-74
2023/09/01 09:40:42;;;;;;;3.42;2.00;;;;;;;;;;5052650;28;20070;-74
2023/09/01 09:43:08;;;;;;;2.80;1.95;;;;;;;;;;5053290;28;20119;-74
2023/09/01 09:45:37;;;;;;;3.85;2.80;;;;;;;;;;5053882;28;20375;-73
2023/09/01 09:48:04;;;;;;;3.80;2.60;;;;;;;;;;5054061;28;20033;-73
2023/09/01 09:50:30;;;;;;;7.55;2.80;;;;;;;;;;5052340;28;20061;-73
2023/09/01 09:53:14;;;;;;;2.90;2.00;;;;;;;;;;5054344;28;20036;-73
2023/09/01 09:55:47;;;;;;;3.65;2.05;;;;;;;;;;5051662;28;20550;-73
2023/09/01 09:58:12;;;;;;;5.50;2.65;;;;;;;;;;5051950;28;20393;-73
2023/09/01 10:00:50;;;;;;;3.63;2.00;;;;;;;;;;5053446;28;20025;-73
2023/09/01 10:03:16;;;;;;;5.47;2.53;;;;;;;;;;5047571;28;20057;-73
2023/09/01 10:05:42;;;;;;;4.82;3.08;;;;;;;;;;5049370;28;20179;-74
2023/09/01 10:08:08;;;;;;;5.20;2.75;;;;;;;;;;5048725;28;20033;-73
2023/09/01 10:10:34;;;;;;;4.13;2.15;;;;;;;;;;5035290;28;20029;-73
2023/09/01 10:13:06;;;;;;;6.07;2.33;;;;;;;;;;5052687;28;20071;-73
2023/09/01 10:15:32;;;;;;;3.03;1.80;;;;;;;;;;5053780;28;20032;-73
2023/09/01 10:17:58;;;;;;;2.72;1.73;;;;;;;;;;5053098;28;20033;-73
2023/09/01 10:20:23;;;;;;;4.30;2.83;;;;;;;;;;5053440;28;20394;-73
2023/09/01 10:22:49;;;;;;;2.90;2.00;;;;;;;;;;5053325;28;20027;-73
2023/09/01 10:25:16;;;;;;;2.83;1.80;;;;;;;;;;5052188;28;20091;-73
2023/09/01 10:28:00;;;;;;;3.78;1.95;;;;;;;;;;5052379;28;20024;-73
2023/09/01 10:30:26;;;;;;;2.97;1.90;;;;;;;;;;5053650;28;20021;-73
2023/09/01 10:33:27;;;;;;;3.70;2.42;;;;;;;;;;5052437;28;20098;-73
2023/09/01 10:35:53;;;;;;;4.63;2.22;;;;;;;;;;5052387;28;20017;-73
2023/09/01 10:38:21;;;;;;;3.53;1.77;;;;;;;;;;5053065;28;20168;-73
2023/09/01 10:40:51;;;;;;;4.38;2.33;;;;;;;;;;5052231;28;20051;-72
2023/09/01 10:43:46;;;;;;;;;;;;;;;;;;5052157;28;20020;-73
2023/09/01 10:46:11;;;;;;;2.95;2.25;;;;;;;;;;5034918;28;19984;-72
2023/09/01 10:49:04;;;;;;;3.23;2.00;;;;;;;;;;5053181;28;20036;-73
2023/09/01 10:51:37;;;;;;;3.28;1.90;;;;;;;;;;5051520;28;20032;-72
2023/09/01 10:54:22;;;;;;;3.80;2.35;;;;;;;;;;5052567;28;20032;-73
2023/09/01 10:56:59;;;;;;;7.20;2.17;;;;;;;;;;5052587;28;20057;-73
2023/09/01 10:59:37;;;;;;;3.55;1.90;;;;;;;;;;5052651;28;20059;-73
2023/09/01 11:02:35;;;;;;;2.90;2.00;;;;;;;;;;5051320;28;20096;-72
2023/09/01 11:05:00;;;;;;;3.83;2.15;;;;;;;;;;5018730;28;20128;-73
2023/09/01 11:07:25;;;;;;;3.15;2.25;;;;;;;;;;5047406;28;20061;-74
2023/09/01 11:09:52;;;;;;;3.50;2.40;;;;;;;;;;5033660;28;20033;-74
2023/09/01 11:12:18;;;;;;;3.42;1.98;;;;;;;;;;5048499;28;20029;-74
2023/09/01 11:14:55;;;;;;;3.83;2.30;;;;;;;;;;5033991;28;20539;-74
2023/09/01 11:17:40;;;;;;;6.97;4.63;;;;;;;;;;5032815;28;20078;-74
2023/09/01 11:20:09;;;;;;;6.15;2.50;;;;;;;;;;5031491;28;20033;-74
2023/09/01 11:22:38;;;;;;;3.67;2.55;;;;;;;;;;5038539;28;20399;-74
2023/09/01 11:25:05;;;;;;;3.60;2.10;;;;;;;;;;5031098;28;20135;-74
2023/09/01 11:27:30;;;;;;;3.70;1.92;;;;;;;;;;5040761;28;20475;-74
2023/09/01 11:29:56;;;;;;;4.90;2.13;;;;;;;;;;5050825;28;20043;-74
2023/09/01 11:32:26;;;;;;;4.15;2.22;;;;;;;;;;5052384;28;20027;-74
2023/09/01 11:34:51;;;;;;;3.95;2.40;;;;;;;;;;5052551;28;20023;-74
2023/09/01 11:37:16;;;;;;;4.13;2.40;;;;;;;;;;5052125;28;20025;-75
2023/09/01 11:39:41;;;;;;;3.08;1.83;;;;;;;;;;5051152;28;20483;-74
2023/09/01 11:42:07;;;;;;;3.05;1.88;;;;;;;;;;5051611;28;20029;-72
2023/09/01 11:44:32;;;;;;;4.28;2.08;;;;;;;;;;5034395;28;20056;-73
2023/09/01 11:46:57;;;;;;;3.42;2.10;;;;;;;;;;5051063;28;20132;-73
2023/09/01 11:49:23;;;;;;;4.00;2.33;;;;;;;;;;5050990;28;20047;-71
2023/09/01 11:51:48;;;;;;;3.42;2.03;;;;;;;;;;5051489;28;20017;-71
2023/09/01 11:54:13;;;;;;;3.70;2.00;;;;;;;;;;5051189;28;20027;-71
2023/09/01 11:56:39;;;;;;;3.13;2.00;;;;;;;;;;5051826;28;20079;-71
2023/09/01 11:59:04;;;;;;;4.55;2.35;;;;;;;;;;5051202;28;20024;-71
2023/09/01 12:01:38;;;;;;;2.92;1.92;;;;;;;;;;5052104;28;20108;-72
2023/09/01 12:04:08;;;;;;;3.45;2.00;;;;;;;;;;5050402;28;20021;-72
2023/09/01 12:06:38;;;;;;;5.25;2.30;;;;;;;;;;5051946;28;20479;-72
2023/09/01 12:09:17;;;;;;;4.82;2.70;;;;;;;;;;5052239;28;20057;-72
2023/09/01 12:12:02;;;;;;;7.18;3.00;;;;;;;;;;5051750;28;20017;-72
2023/09/01 12:14:29;;;;;;;2.97;2.45;;;;;;;;;;5051270;28;20359;-72
2023/09/01 12:16:55;;;;;;;3.00;1.90;;;;;;;;;;5052051;28;20475;-72
2023/09/01 12:19:24;;;;;;;2.53;1.52;;;;;;;;;;5053746;28;20031;-72
2023/09/01 12:21:56;;;;;;;3.72;2.30;;;;;;;;;;5055637;28;20114;-72
2023/09/01 12:24:22;;;;;;;2.90;2.10;;;;;;;;;;5053873;28;20030;-72
2023/09/01 12:26:47;;;;;;;2.85;2.10;;;;;;;;;;5055622;28;20025;-72
2023/09/01 12:29:12;;;;;;;4.63;2.88;;;;;;;;;;5055837;28;20395;-72
2023/09/01 12:31:38;;;;;;;3.80;2.17;;;;;;;;;;5054894;28;20017;-72
2023/09/01 12:34:03;;;;;;;3.00;2.00;;;;;;;;;;5055443;28;20036;-72
2023/09/01 12:36:28;;;;;;;3.25;1.92;;;;;;;;;;5054440;28;20017;-72
2023/09/01 12:38:53;;;;;;;3.05;1.92;;;;;;;;;;5055489;28;20037;-72
2023/09/01 12:41:19;;;;;;;2.35;1.80;;;;;;;;;;5055375;28;20084;-72
2023/09/01 12:43:44;;;;;;;3.78;1.90;;;;;;;;;;5053431;28;20021;-72
2023/09/01 12:46:09;;;;;;;2.78;1.90;;;;;;;;;;5053773;28;20059;-72
2023/09/01 12:48:35;;;;;;;3.30;1.70;;;;;;;;;;5054168;28;20556;-72
2023/09/01 12:51:00;;;;;;;2.88;1.70;;;;;;;;;;5054705;28;20029;-72
2023/09/01 12:53:26;;;;;;;3.22;1.52;;;;;;;;;;5055433;28;20056;-72
2023/09/01 12:55:51;;;;;;;5.97;1.77;;;;;;;;;;5054512;28;20055;-72
2023/09/01 12:58:16;;;;;;;2.63;1.70;;;;;;;;;;5053970;28;20096;-72
2023/09/01 13:00:43;;;;;;;2.45;1.52;;;;;;;;;;5053894;28;20025;-73
2023/09/01 13:03:08;;;;;;;2.47;1.88;;;;;;;;;;5054851;28;20021;-72
2023/09/01 13:05:34;;;;;;;2.58;1.70;;;;;;;;;;5053221;28;20025;-72
2023/09/01 13:07:59;;;;;;;2.67;1.67;;;;;;;;;;5054597;28;20017;-72
2023/09/01 13:10:25;;;;;;;2.83;1.63;;;;;;;;;;5053062;28;20048;-72
2023/09/01 13:12:53;;;;;;;2.78;1.60;;;;;;;;;;5053583;28;20029;-72
2023/09/01 13:15:18;;;;;;;3.00;1.63;;;;;;;;;;5054938;28;20506;-73
2023/09/01 13:17:45;;;;;;;2.35;1.67;;;;;;;;;;5052810;28;20033;-72
2023/09/01 13:20:12;;;;;;;2.97;2.08;;;;;;;;;;5053301;28;20382;-72
2023/09/01 13:22:37;;;;;;;5.65;1.80;;;;;;;;;;5053469;28;20402;-72
2023/09/01 13:25:04;;;;;;;4.25;1.90;;;;;;;;;;5052706;28;20025;-72
2023/09/01 13:27:29;;;;;;;2.03;1.40;;;;;;;;;;5054275;28;20075;-72
2023/09/01 13:29:54;;;;;;;4.05;1.70;;;;;;;;;;5054639;28;20025;-72
2023/09/01 13:32:20;;;;;;;3.53;1.73;;;;;;;;;;5054544;28;20025;-72
2023/09/01 13:34:45;;;;;;;4.68;1.73;;;;;;;;;;5054665;28;20029;-73
2023/09/01 13:37:11;;;;;;;3.58;2.03;;;;;;;;;;5052461;28;20029;-72
2023/09/01 13:39:38;;;;;;;4.95;2.55;;;;;;;;;;5054343;28;20090;-72
2023/09/01 13:42:03;;;;;;;3.95;2.28;;;;;;;;;;5053259;28;20484;-72
2023/09/01 13:44:29;;;;;;;3.45;1.85;;;;;;;;;;5052945;28;20048;-72
2023/09/01 13:46:54;;;;;;;4.20;2.15;;;;;;;;;;5053864;28;20037;-72
2023/09/01 13:49:20;;;;;;;3.42;1.85;;;;;;;;;;5053472;28;20108;-72
2023/09/01 13:51:45;;;;;;;3.70;2.40;;;;;;;;;;5053010;28;20391;-72
2023/09/01 13:54:10;;;;;;;2.90;2.25;;;;;;;;;;5054221;28;20036;-72
2023/09/01 13:56:36;;;;;;;3.88;2.00;;;;;;;;;;5052654;28;20021;-72
2023/09/01 13:59:01;;;;;;;2.53;2.03;;;;;;;;;;5053357;28;20029;-72
2023/09/01 14:01:26;;;;;;;2.92;2.25;;;;;;;;;;5053092;28;20131;-72
2023/09/01 14:03:52;;;;;;;4.28;2.10;;;;;;;;;;5052667;28;20527;-72
2023/09/01 14:06:17;;;;;;;3.42;2.50;;;;;;;;;;5052464;28;20032;-72
2023/09/01 14:08:42;;;;;;;3.30;2.53;;;;;;;;;;5053243;28;20402;-72
2023/09/01 14:11:08;;;;;;;4.18;2.72;;;;;;;;;;5053213;28;20021;-73
2023/09/01 14:13:33;;;;;;;4.60;2.95;;;;;;;;;;5053759;28;20021;-72
2023/09/01 14:15:58;;;;;;;3.40;2.25;;;;;;;;;;5053151;28;20032;-72
2023/09/01 14:18:25;;;;;;;4.53;2.08;;;;;;;;;;5053548;28;20028;-72
2023/09/01 14:20:53;;;;;;;2.97;2.17;;;;;;;;;;5052070;28;20055;-72
2023/09/01 14:23:20;;;;;;;3.25;2.45;;;;;;;;;;5051629;28;20029;-72
2023/09/01 14:25:45;;;;;;;5.40;2.13;;;;;;;;;;5052290;28;20032;-72
2023/09/01 14:28:12;;;;;;;3.10;2.20;;;;;;;;;;5052371;28;20048;-73
2023/09/01 14:30:37;;;;;;;4.28;2.28;;;;;;;;;;5051512;28;20027;-73
2023/09/01 14:33:02;;;;;;;4.28;2.38;;;;;;;;;;5051522;28;20371;-72
2023/09/01 14:35:28;;;;;;;3.38;2.03;;;;;;;;;;5053212;28;20021;-73
2023/09/01 14:37:53;;;;;;;5.60;2.50;;;;;;;;;;5052934;28;20032;-72
2023/09/01 14:40:18;;;;;;;4.75;2.40;;;;;;;;;;5053109;28;20075;-72
2023/09/01 14:42:44;;;;;;;4.93;2.58;;;;;;;;;;5052660;28;20036;-72